Terminal Aerodrome Forecast
Issued by NWS Wilmington, OH

Current Version | Previous Version | Graphics & Text | Print | Product List | Glossary On
Versions: 1 2 3 4 5 6 7 8 9 10 11 12 13 14 15
568
FTUS41 KILN 271738
TAFCMH
TAF
KCMH 271738Z 2718/2818 18009KT P6SM -SHRA BKN015 OVC035
      TEMPO 2718/2719 BKN008
     FM272100 17008KT P6SM -SHRA OVC022
     FM272300 16006KT P6SM VCSH SCT022 OVC050
     FM280100 15005KT P6SM SCT040 BKN150
     FM281300 15008KT P6SM VCSH OVC025
     FM281500 17010KT P6SM -SHRA OVC015=

USA.gov is the U.S. government's official web portal to all federal, state and local government web resources and services.